createdAt,value
2018-06-19T00:01:16.083Z,100469.73
2018-06-19T00:03:45.245Z,100458.91
2018-06-19T00:06:14.481Z,100452.99
2018-06-19T00:08:43.417Z,100449.96
2018-06-19T00:11:12.626Z,100440.98
2018-06-19T00:13:41.925Z,100427.45
2018-06-19T00:16:10.969Z,100426.60
2018-06-19T00:18:45.006Z,100413.57
2018-06-19T00:21:20.086Z,100408.16
2018-06-19T00:23:49.350Z,100405.95
2018-06-19T00:26:19.131Z,100397.83
2018-06-19T00:28:49.182Z,100389.39
2018-06-19T00:31:18.251Z,100387.69
2018-06-19T00:33:47.337Z,100385.48
2018-06-19T00:36:16.385Z,100390.04
2018-06-19T00:38:45.583Z,100378.22
2018-06-19T00:41:14.622Z,100377.86
2018-06-19T00:43:43.628Z,100374.84
2018-06-19T00:46:12.658Z,100366.36
2018-06-19T00:48:41.782Z,100369.07
2018-06-19T00:51:10.724Z,100370.42
2018-06-19T00:53:39.753Z,100374.98
2018-06-19T00:56:19.758Z,100372.28
2018-06-19T00:58:49.717Z,100361.28
2018-06-19T01:01:18.764Z,100360.46
2018-06-19T01:03:47.761Z,100347.43
2018-06-19T01:06:16.730Z,100349.75
2018-06-19T01:08:45.745Z,100338.93
2018-06-19T01:11:14.809Z,100332.66
2018-06-19T01:13:43.850Z,100334.55
2018-06-19T01:16:12.892Z,100334.55
2018-06-19T01:18:41.883Z,100337.91
2018-06-19T01:21:10.977Z,100329.28
2018-06-19T01:23:40.012Z,100318.46
2018-06-19T01:26:09.036Z,100308.67
2018-06-19T01:28:38.167Z,100299.20
2018-06-19T01:31:07.510Z,100303.77
2018-06-19T01:33:36.493Z,100318.14
2018-06-19T01:36:05.880Z,100333.84
2018-06-19T01:38:34.894Z,100334.88
2018-06-19T01:41:03.826Z,100324.91
2018-06-19T01:43:33.023Z,100315.94
2018-06-19T01:46:03.209Z,100320.00
2018-06-19T01:48:32.062Z,100313.23
2018-06-19T01:51:00.957Z,100327.77
2018-06-19T01:53:29.896Z,100338.59
2018-06-19T01:55:58.780Z,100332.67
2018-06-19T01:58:28.148Z,100307.47
2018-06-19T02:00:57.174Z,100317.80
2018-06-19T02:03:26.230Z,100318.64
2018-06-19T02:05:55.223Z,100301.70
2018-06-19T02:08:24.329Z,100297.50
2018-06-19T02:10:53.371Z,100284.47
2018-06-19T02:13:22.512Z,100284.47
2018-06-19T02:15:51.425Z,100275.50
2018-06-19T02:18:20.257Z,100274.65
2018-06-19T02:20:49.195Z,100272.48
2018-06-19T02:23:18.340Z,100269.23
2018-06-19T02:25:47.327Z,100264.68
2018-06-19T02:28:16.672Z,100258.59
2018-06-19T02:30:45.472Z,100267.06
2018-06-19T02:33:14.520Z,100258.95
2018-06-19T02:35:43.508Z,100260.80
2018-06-19T02:38:12.510Z,100260.30
2018-06-19T02:40:41.390Z,100253.53
2018-06-19T02:43:10.182Z,100249.12
2018-06-19T02:45:39.304Z,100245.07
2018-06-19T02:48:08.286Z,100248.46
2018-06-19T02:50:37.283Z,100242.55
2018-06-19T02:53:06.831Z,100230.37
2018-06-19T02:55:36.638Z,100234.93
2018-06-19T02:58:05.542Z,100220.55
2018-06-19T03:00:34.507Z,100231.02
2018-06-19T03:03:03.675Z,100226.47
2018-06-19T03:05:32.621Z,100231.02
2018-06-19T03:08:01.544Z,100223.44
2018-06-19T03:10:30.442Z,100205.50
2018-06-19T03:12:59.434Z,100195.19
2018-06-19T03:15:28.599Z,100207.86
2018-06-19T03:17:57.639Z,100207.04
2018-06-19T03:20:26.526Z,100209.75
2018-06-19T03:22:55.459Z,100215.16
2018-06-19T03:25:24.404Z,100209.39
2018-06-19T03:27:53.367Z,100203.98
2018-06-19T03:30:22.575Z,100202.28
2018-06-19T03:32:51.597Z,100207.19
2018-06-19T03:35:21.134Z,100195.20
2018-06-19T03:37:50.165Z,100201.97
2018-06-19T03:40:19.055Z,100192.50
2018-06-19T03:42:48.137Z,100196.55
2018-06-19T03:45:17.172Z,100192.14
2018-06-19T03:47:46.167Z,100192.64
2018-06-19T03:50:15.226Z,100190.80
2018-06-19T03:52:44.327Z,100193.00
2018-06-19T03:55:13.212Z,100192.14
2018-06-19T03:57:42.109Z,100194.84
2018-06-19T04:00:11.212Z,100204.82
2018-06-19T04:02:40.305Z,100195.34
2018-06-19T04:05:09.248Z,100192.64
2018-06-19T04:07:38.230Z,100191.83
2018-06-19T04:10:07.183Z,100192.14
2018-06-19T04:12:36.317Z,100185.38
2018-06-19T04:15:05.298Z,100175.59
2018-06-19T04:17:34.269Z,100176.41
2018-06-19T04:20:03.139Z,100181.33
2018-06-19T04:22:32.102Z,100178.80
2018-06-19T04:25:00.922Z,100179.12
2018-06-19T04:27:29.808Z,100173.89
2018-06-19T04:29:58.784Z,100171.19
2018-06-19T04:32:27.595Z,100169.34
2018-06-19T04:34:56.620Z,100168.48
2018-06-19T04:37:25.644Z,100167.63
2018-06-19T04:39:55.325Z,100170.69
2018-06-19T04:42:24.309Z,100170.69
2018-06-19T04:44:53.362Z,100176.09
2018-06-19T04:47:22.298Z,100164.43
2018-06-19T04:49:51.386Z,100166.45
2018-06-19T04:52:20.385Z,100165.78
2018-06-19T04:54:49.435Z,100168.48
2018-06-19T04:57:18.274Z,100168.48
2018-06-19T04:59:47.173Z,100167.63
2018-06-19T05:02:16.098Z,100173.89
2018-06-19T05:04:45.221Z,100171.52
2018-06-19T05:07:14.098Z,100172.19
2018-06-19T05:09:42.926Z,100174.05
2018-06-19T05:12:11.932Z,100181.34
2018-06-19T05:14:40.876Z,100174.58
2018-06-19T05:17:09.926Z,100166.11
2018-06-19T05:19:38.923Z,100167.47
2018-06-19T05:22:08.516Z,100163.91
2018-06-19T05:24:37.546Z,100166.11
2018-06-19T05:27:06.646Z,100163.06
2018-06-19T05:29:35.709Z,100172.53
2018-06-19T05:32:04.606Z,100162.74
2018-06-19T05:34:33.456Z,100155.98
2018-06-19T05:37:02.739Z,100150.06
2018-06-19T05:39:31.637Z,100154.28
2018-06-19T05:42:00.585Z,100151.57
2018-06-19T05:44:29.674Z,100131.79
2018-06-19T05:46:58.577Z,100132.82
2018-06-19T05:49:27.718Z,100128.27
2018-06-19T05:51:56.687Z,100136.03
2018-06-19T05:54:25.808Z,100125.71
2018-06-19T05:56:54.849Z,100117.95
2018-06-19T05:59:24.270Z,100107.63
2018-06-19T06:01:53.110Z,100110.84
2018-06-19T06:04:22.381Z,100111.69
2018-06-19T06:06:51.602Z,100098.16
2018-06-19T06:09:20.494Z,100093.61
2018-06-19T06:11:49.516Z,100106.09
2018-06-19T06:14:18.552Z,100105.59
2018-06-19T06:16:47.464Z,100091.06
2018-06-19T06:19:16.246Z,100096.47
2018-06-19T06:21:45.035Z,100094.09
2018-06-19T06:24:13.750Z,100094.09
2018-06-19T06:26:42.647Z,100094.44
2018-06-19T06:29:11.400Z,100093.43
2018-06-19T06:31:40.154Z,100094.44
2018-06-19T06:34:08.883Z,100106.11
2018-06-19T06:36:37.617Z,100102.55
2018-06-19T06:39:08.002Z,100097.14
2018-06-19T06:41:37.057Z,100095.28
2018-06-19T06:44:05.892Z,100091.23
2018-06-19T06:46:34.690Z,100097.98
2018-06-19T06:49:03.550Z,100096.64
2018-06-19T06:51:32.331Z,100094.44
2018-06-19T06:54:01.128Z,100089.53
2018-06-19T06:56:29.966Z,100101.70
2018-06-19T06:58:58.752Z,100088.67
2018-06-19T07:01:27.614Z,100082.77
2018-06-19T07:03:56.982Z,100087.33
2018-06-19T07:06:25.887Z,100088.67
2018-06-19T07:08:55.015Z,100085.16
2018-06-19T07:11:24.112Z,100080.56
2018-06-19T07:13:53.197Z,100080.25
2018-06-19T07:16:22.146Z,100091.06
2018-06-19T07:18:51.235Z,100096.80
2018-06-19T07:21:20.151Z,100087.51
2018-06-19T07:23:49.186Z,100086.16
2018-06-19T07:26:18.064Z,100088.86
2018-06-19T07:28:47.225Z,100099.68
2018-06-19T07:31:16.114Z,100095.63
2018-06-19T07:33:45.206Z,100090.91
2018-06-19T07:36:14.143Z,100093.11
2018-06-19T07:38:42.935Z,100089.05
2018-06-19T07:41:11.922Z,100082.79
2018-06-19T07:43:40.714Z,100083.29
2018-06-19T07:46:09.866Z,100073.82
2018-06-19T07:48:38.868Z,100073.82
2018-06-19T07:51:07.810Z,100066.21
2018-06-19T07:53:36.971Z,100075.67
2018-06-19T07:56:06.111Z,100068.06
2018-06-19T07:58:35.057Z,100071.30
2018-06-19T08:01:04.287Z,100068.60
2018-06-19T08:03:33.348Z,100068.06
2018-06-19T08:06:02.275Z,100058.95
2018-06-19T08:08:31.318Z,100067.06
2018-06-19T08:11:00.278Z,100057.59
2018-06-19T08:13:29.126Z,100049.83
2018-06-19T08:15:58.262Z,100052.85
2018-06-19T08:18:27.379Z,100054.05
2018-06-19T08:20:56.404Z,100055.41
2018-06-19T08:23:25.478Z,100045.25
2018-06-19T08:25:54.457Z,100041.85
2018-06-19T08:28:23.308Z,100045.75
2018-06-19T08:30:52.337Z,100042.36
2018-06-19T08:33:21.281Z,100050.29
2018-06-19T08:35:50.341Z,100059.60
2018-06-19T08:38:19.304Z,100056.71
2018-06-19T08:40:48.165Z,100058.56
2018-06-19T08:43:17.240Z,100051.30
2018-06-19T08:45:46.284Z,100046.23
2018-06-19T08:48:15.141Z,100044.70
2018-06-19T08:50:44.080Z,100044.70
2018-06-19T08:53:13.162Z,100046.05
2018-06-19T08:55:42.113Z,100035.58
2018-06-19T08:58:11.213Z,100033.19
2018-06-19T09:00:40.501Z,100030.48
2018-06-19T09:03:09.518Z,100026.92
2018-06-19T09:05:38.295Z,100017.80
2018-06-19T09:08:07.346Z,100002.42
2018-06-19T09:10:36.496Z,100028.13
2018-06-19T09:13:05.497Z,100025.41
2018-06-19T09:15:34.528Z,100027.77
2018-06-19T09:18:03.881Z,100025.92
2018-06-19T09:20:32.885Z,100012.89
2018-06-19T09:23:01.915Z,100023.72
2018-06-19T09:25:30.869Z,100004.62
2018-06-19T09:27:59.902Z,100001.38
2018-06-19T09:30:28.678Z,99991.41
2018-06-19T09:32:57.793Z,99998.52
2018-06-19T09:35:27.378Z,100003.74
2018-06-19T09:37:56.145Z,100002.39
2018-06-19T09:40:25.139Z,99982.95
2018-06-19T09:42:54.138Z,99982.45
2018-06-19T09:45:23.231Z,99976.03
2018-06-19T09:47:52.221Z,99960.61
2018-06-19T09:50:21.316Z,99973.32
2018-06-19T09:52:50.614Z,99981.25
2018-06-19T09:55:19.761Z,99985.31
2018-06-19T09:57:48.710Z,99993.42
2018-06-19T10:00:23.264Z,99985.31
2018-06-19T10:02:52.623Z,99995.66
2018-06-19T10:05:21.550Z,100003.77
2018-06-19T10:07:50.560Z,100004.75
2018-06-19T10:10:19.572Z,100012.87
2018-06-19T10:12:48.517Z,100018.28
2018-06-19T10:15:17.570Z,100029.10
2018-06-19T10:17:46.295Z,100025.05
2018-06-19T10:20:15.041Z,100021.84
2018-06-19T10:22:44.031Z,100033.16
2018-06-19T10:25:13.617Z,100017.43
2018-06-19T10:27:42.668Z,100019.31
2018-06-19T10:30:11.665Z,99994.97
2018-06-19T10:32:40.790Z,100016.27
2018-06-19T10:35:09.788Z,100011.36
2018-06-19T10:37:38.670Z,100021.33
2018-06-19T10:40:07.807Z,100018.62
2018-06-19T10:42:36.852Z,100021.02
2018-06-19T10:45:05.989Z,100027.27
2018-06-19T10:47:35.005Z,100024.22
2018-06-19T10:50:04.296Z,100034.20
2018-06-19T10:52:33.335Z,100030.14
2018-06-19T10:55:02.588Z,100035.20
2018-06-19T10:57:31.433Z,100025.92
2018-06-19T11:00:00.526Z,100013.55
2018-06-19T11:02:29.528Z,100018.66
2018-06-19T11:04:58.525Z,100011.04
2018-06-19T11:07:30.495Z,100021.02
2018-06-19T11:10:01.904Z,100027.77
2018-06-19T11:12:31.077Z,100017.45
2018-06-19T11:15:00.176Z,100033.19
2018-06-19T11:17:29.074Z,100034.89
2018-06-19T11:19:58.061Z,100020.16
2018-06-19T11:22:27.020Z,100030.98
2018-06-19T11:24:55.834Z,100036.58
2018-06-19T11:27:24.645Z,100035.58
2018-06-19T11:29:53.687Z,100036.61
2018-06-19T11:32:22.568Z,100057.72
2018-06-19T11:34:51.665Z,100062.62
2018-06-19T11:37:20.379Z,100058.04
2018-06-19T11:39:49.289Z,100064.80
2018-06-19T11:42:18.385Z,100073.45
2018-06-19T11:44:47.414Z,100073.95
2018-06-19T11:47:16.451Z,100068.55
2018-06-19T11:49:45.790Z,100070.91
2018-06-19T11:52:14.739Z,100092.89
2018-06-19T11:54:43.532Z,100080.22
2018-06-19T11:57:12.578Z,100073.11
2018-06-19T11:59:41.683Z,100089.34
2018-06-19T12:02:10.762Z,100083.92
2018-06-19T12:04:39.794Z,100094.25
2018-06-19T12:07:08.864Z,100095.59
2018-06-19T12:09:37.844Z,100113.69
2018-06-19T12:12:06.934Z,100108.78
2018-06-19T12:14:35.942Z,100098.30
2018-06-19T12:17:04.914Z,100133.13
2018-06-19T12:19:34.191Z,100102.52
2018-06-19T12:22:03.219Z,100113.02
2018-06-19T12:24:32.111Z,100103.05
2018-06-19T12:27:02.212Z,100107.61
2018-06-19T12:29:31.129Z,100115.72
2018-06-19T12:32:00.179Z,100131.61
2018-06-19T12:34:29.225Z,100116.73
2018-06-19T12:36:58.173Z,100125.34
2018-06-19T12:39:27.001Z,100124.18
2018-06-19T12:41:55.882Z,100133.65
2018-06-19T12:44:25.027Z,100139.06
2018-06-19T12:46:54.137Z,100123.33
2018-06-19T12:49:32.809Z,100144.12
2018-06-19T12:52:12.683Z,100146.51
2018-06-19T12:55:24.798Z,100141.59
2018-06-19T12:57:53.863Z,100140.08
2018-06-19T13:00:22.942Z,100152.41
2018-06-19T13:03:02.806Z,100147.18
2018-06-19T13:05:42.863Z,100148.03
2018-06-19T13:08:11.744Z,100168.81
2018-06-19T13:10:40.857Z,100149.03
2018-06-19T13:13:22.829Z,100163.91
2018-06-19T13:15:53.378Z,100151.23
2018-06-19T13:19:34.865Z,100167.12
2018-06-19T13:22:03.845Z,100173.56
2018-06-19T13:24:32.802Z,100177.77
2018-06-19T13:27:01.908Z,100181.00
2018-06-19T13:29:44.203Z,100171.54
2018-06-19T13:32:13.429Z,100181.33
2018-06-19T13:34:42.541Z,100198.05
2018-06-19T13:37:11.494Z,100187.09
2018-06-19T13:39:41.344Z,100188.94
2018-06-19T13:42:22.333Z,100185.73
2018-06-19T13:44:59.321Z,100195.20
2018-06-19T13:47:28.425Z,100194.70
2018-06-19T13:49:57.561Z,100198.41
2018-06-19T13:52:26.448Z,100188.44
2018-06-19T13:56:03.644Z,100202.28
2018-06-19T13:58:32.714Z,100199.41
2018-06-19T14:01:01.690Z,100200.26
2018-06-19T14:03:30.630Z,100209.73
2018-06-19T14:05:59.429Z,100206.17
2018-06-19T14:08:39.321Z,100218.69
2018-06-19T14:11:19.446Z,100209.73
2018-06-19T14:13:49.022Z,100218.19
2018-06-19T14:16:17.932Z,100207.02
2018-06-19T14:18:46.942Z,100212.78
2018-06-19T14:21:15.919Z,100211.42
2018-06-19T14:23:44.964Z,100210.08
2018-06-19T14:26:13.772Z,100216.84
2018-06-19T14:28:42.847Z,100223.60
2018-06-19T14:31:11.926Z,100212.60
2018-06-19T14:33:41.567Z,100224.95
2018-06-19T14:36:10.697Z,100224.77
2018-06-19T14:38:39.641Z,100219.86
2018-06-19T14:41:08.697Z,100222.06
2018-06-19T14:43:37.834Z,100223.10
2018-06-19T14:46:06.884Z,100228.33
2018-06-19T14:48:35.600Z,100229.86
2018-06-19T14:51:04.713Z,100238.80
2018-06-19T14:53:33.598Z,100236.94
2018-06-19T14:56:02.602Z,100233.73
2018-06-19T14:58:31.694Z,100238.80
2018-06-19T15:01:00.788Z,100238.65
2018-06-19T15:03:29.989Z,100231.88
2018-06-19T15:05:58.885Z,100233.73
2018-06-19T15:21:27.779Z,100243.66
2018-06-19T15:23:56.921Z,100259.03
2018-06-19T15:26:26.045Z,100265.14
2018-06-19T15:28:54.965Z,100269.19
2018-06-19T15:31:23.988Z,100253.99
2018-06-19T15:33:53.111Z,100273.09
2018-06-19T15:36:22.014Z,100272.41
2018-06-19T15:38:50.837Z,100268.21
2018-06-19T15:41:19.779Z,100273.79
2018-06-19T15:43:48.830Z,100273.11
2018-06-19T15:46:18.061Z,100263.97
2018-06-19T15:48:46.987Z,100273.43
2018-06-19T15:51:15.955Z,100266.52
2018-06-19T15:53:45.565Z,100265.48
2018-06-19T15:56:14.571Z,100271.25
2018-06-19T15:58:43.637Z,100272.45
2018-06-19T16:01:12.705Z,100271.92
2018-06-19T16:03:41.885Z,100279.04
2018-06-19T16:06:11.198Z,100276.16
2018-06-19T16:08:40.181Z,100279.20
2018-06-19T16:11:09.343Z,100281.06
2018-06-19T16:13:38.386Z,100287.67
2018-06-19T16:16:07.483Z,100296.61
2018-06-19T16:18:36.667Z,100289.34
2018-06-19T16:21:05.726Z,100298.31
2018-06-19T16:23:34.854Z,100299.17
2018-06-19T16:26:03.897Z,100300.52
2018-06-19T16:28:32.986Z,100296.78
2018-06-19T16:31:01.938Z,100306.25
2018-06-19T16:33:30.744Z,100311.66
2018-06-19T16:35:59.909Z,100309.80
2018-06-19T16:38:28.651Z,100301.69
2018-06-19T16:40:57.445Z,100320.98
2018-06-19T16:43:26.379Z,100312.02
2018-06-19T16:45:55.201Z,100314.22
2018-06-19T16:48:24.099Z,100316.42
2018-06-19T16:50:53.149Z,100313.53
2018-06-19T16:53:22.958Z,100318.95
2018-06-19T16:55:52.198Z,100320.66
2018-06-19T16:58:21.319Z,100327.41
2018-06-19T17:00:50.090Z,100320.12
2018-06-19T17:03:18.937Z,100326.38
2018-06-19T17:05:47.743Z,100331.29
2018-06-19T17:08:16.588Z,100336.70
2018-06-19T17:10:45.810Z,100338.05
2018-06-19T17:13:15.118Z,100342.97
2018-06-19T17:15:44.224Z,100342.61
2018-06-19T17:18:13.278Z,100337.70
2018-06-19T17:20:42.042Z,100345.81
2018-06-19T17:23:10.910Z,100350.41
2018-06-19T17:25:39.951Z,100355.81
2018-06-19T17:28:08.781Z,100353.11
2018-06-19T17:30:37.682Z,100349.55
2018-06-19T17:33:06.605Z,100348.70
2018-06-19T17:35:35.410Z,100346.84
2018-06-19T17:38:04.547Z,100357.67
2018-06-19T17:40:33.396Z,100351.41
2018-06-19T17:43:02.632Z,100354.11
2018-06-19T17:45:31.496Z,100349.70
2018-06-19T17:48:00.394Z,100353.26
2018-06-19T17:50:29.245Z,100360.52
2018-06-19T17:52:58.062Z,100375.08
2018-06-19T17:55:27.038Z,100354.79
2018-06-19T17:57:55.939Z,100364.75
2018-06-19T18:00:25.710Z,100366.61
2018-06-19T18:02:55.019Z,100369.31
2018-06-19T18:05:24.212Z,100365.75
2018-06-19T18:07:53.377Z,100363.58
2018-06-19T18:10:22.640Z,100359.17
2018-06-19T18:12:51.585Z,100367.28
2018-06-19T18:15:20.866Z,100382.34
2018-06-19T18:17:50.075Z,100380.81
2018-06-19T18:20:19.082Z,100378.11
2018-06-19T18:22:48.405Z,100388.57
2018-06-19T18:25:17.385Z,100383.16
2018-06-19T18:27:46.440Z,100379.63
2018-06-19T18:30:15.300Z,100382.66
2018-06-19T18:32:44.590Z,100382.34
2018-06-19T18:35:13.704Z,100387.22
2018-06-19T18:37:42.807Z,100388.92
2018-06-19T18:40:12.222Z,100385.87
2018-06-19T18:42:41.335Z,100407.50
2018-06-19T18:45:10.405Z,100405.33
2018-06-19T18:47:39.838Z,100398.04
2018-06-19T18:50:08.911Z,100399.07
2018-06-19T18:52:38.873Z,100407.19
2018-06-19T18:55:07.947Z,100405.83
2018-06-19T18:57:37.335Z,100397.36
2018-06-19T19:00:06.570Z,100401.42
2018-06-19T19:02:35.406Z,100417.65
2018-06-19T19:05:04.613Z,100418.50
2018-06-19T19:07:33.781Z,100415.80
2018-06-19T19:10:07.905Z,100419.85
2018-06-19T19:12:36.981Z,100429.50
2018-06-19T19:15:11.031Z,100431.67
2018-06-19T19:17:45.243Z,100433.55
2018-06-19T19:20:14.113Z,100412.91
2018-06-19T19:22:42.978Z,100419.32
2018-06-19T19:25:11.903Z,100425.27
2018-06-19T19:27:45.810Z,100423.06
2018-06-19T19:30:14.612Z,100426.76
2018-06-19T19:32:43.449Z,100442.13
2018-06-19T19:35:13.092Z,100441.28
2018-06-19T19:37:47.286Z,100443.66
2018-06-19T19:40:16.085Z,100450.42
2018-06-19T19:42:44.919Z,100454.13
2018-06-19T19:45:13.827Z,100457.33
2018-06-19T19:47:47.826Z,100466.30
2018-06-19T19:50:16.721Z,100462.41
2018-06-19T19:52:45.712Z,100476.08
2018-06-19T19:55:14.612Z,100484.55
2018-06-19T19:57:48.608Z,100481.48
2018-06-19T20:00:27.737Z,100470.34
2018-06-19T20:02:57.154Z,100484.37
2018-06-19T20:05:26.917Z,100478.10
2018-06-19T20:07:55.828Z,100477.25
2018-06-19T20:10:24.633Z,100471.34
2018-06-19T20:12:53.475Z,100484.54
2018-06-19T20:15:22.326Z,100480.13
2018-06-19T20:17:51.273Z,100482.83
2018-06-19T20:20:20.065Z,100489.59
2018-06-19T20:22:48.977Z,100490.95
2018-06-19T20:25:17.835Z,100492.47
2018-06-19T20:27:46.651Z,100491.62
2018-06-19T20:30:15.584Z,100485.85
2018-06-19T20:32:44.617Z,100488.55
2018-06-19T20:35:13.443Z,100491.27
2018-06-19T20:37:42.212Z,100486.88
2018-06-19T20:40:11.086Z,100489.05
2018-06-19T20:42:39.935Z,100490.08
2018-06-19T20:45:08.891Z,100497.70
2018-06-19T20:47:37.736Z,100498.69
2018-06-19T20:50:06.657Z,100500.40
2018-06-19T20:52:35.510Z,100499.05
2018-06-19T20:55:04.348Z,100498.69
2018-06-19T20:57:33.208Z,100502.75
2018-06-19T21:00:02.123Z,100504.10
2018-06-19T21:02:31.070Z,100499.69
2018-06-19T21:05:00.051Z,100503.74
2018-06-19T21:07:29.030Z,100507.80
2018-06-19T21:09:58.051Z,100510.86
2018-06-19T21:12:27.013Z,100510.50
2018-06-19T21:14:55.908Z,100517.27
2018-06-19T21:17:24.724Z,100519.11
2018-06-19T21:19:53.631Z,100501.89
2018-06-19T21:22:22.510Z,100511.00
2018-06-19T21:24:51.405Z,100516.94
2018-06-19T21:27:20.533Z,100511.53
2018-06-19T21:29:50.466Z,100514.23
2018-06-19T21:32:20.131Z,100513.38
2018-06-19T21:34:49.364Z,100515.59
2018-06-19T21:37:18.547Z,100513.70
2018-06-19T21:39:47.795Z,100508.30
2018-06-19T21:42:17.104Z,100517.27
2018-06-19T21:44:46.285Z,100509.65
2018-06-19T21:47:15.327Z,100515.59
2018-06-19T21:49:44.863Z,100512.03
2018-06-19T21:52:14.237Z,100531.45
2018-06-19T21:54:43.579Z,100522.48
2018-06-19T21:57:12.824Z,100519.78
2018-06-19T21:59:42.182Z,100525.20
2018-06-19T22:02:11.316Z,100526.55
2018-06-19T22:04:40.539Z,100522.16
2018-06-19T22:07:09.893Z,100525.37
2018-06-19T22:09:39.114Z,100526.36
2018-06-19T22:12:08.681Z,100539.88
2018-06-19T22:14:37.972Z,100536.84
2018-06-19T22:17:07.211Z,100539.70
2018-06-19T22:19:36.573Z,100538.70
2018-06-19T22:22:06.050Z,100546.45
2018-06-19T22:24:35.395Z,100543.75
2018-06-19T22:27:04.650Z,100545.10
2018-06-19T22:29:34.802Z,100538.84
2018-06-19T22:32:04.094Z,100544.77
2018-06-19T22:34:33.490Z,100538.98
2018-06-19T22:37:03.288Z,100541.69
2018-06-19T22:39:32.782Z,100537.27
2018-06-19T22:42:01.827Z,100539.15
2018-06-19T22:44:30.774Z,100528.34
2018-06-19T22:47:00.066Z,100533.39
2018-06-19T22:49:29.305Z,100542.84
2018-06-19T22:51:58.377Z,100539.79
2018-06-19T22:54:27.382Z,100543.84
2018-06-19T22:56:56.355Z,100542.16
2018-06-19T22:59:25.307Z,100546.55
2018-06-19T23:01:54.298Z,100548.42
2018-06-19T23:04:23.722Z,100559.23
2018-06-19T23:06:52.849Z,100565.64
2018-06-19T23:09:21.896Z,100566.00
2018-06-19T23:11:50.888Z,100565.64
2018-06-19T23:14:19.783Z,100566.99
2018-06-19T23:16:48.620Z,100576.45
2018-06-19T23:19:17.613Z,100582.22
2018-06-19T23:21:46.499Z,100571.05
2018-06-19T23:24:15.333Z,100574.11
2018-06-19T23:26:44.323Z,100562.94
2018-06-19T23:29:13.214Z,100565.64
2018-06-19T23:31:42.180Z,100553.97
2018-06-19T23:34:11.585Z,100547.57
2018-06-19T23:36:40.614Z,100545.37
2018-06-19T23:39:10.190Z,100555.82
2018-06-19T23:41:39.260Z,100560.23
2018-06-19T23:44:08.261Z,100568.34
2018-06-19T23:46:37.197Z,100571.05
2018-06-19T23:49:06.289Z,100576.95
2018-06-19T23:51:35.266Z,100579.30
2018-06-19T23:54:04.213Z,100578.80
2018-06-19T23:56:33.056Z,100574.74
2018-06-19T23:59:03.202Z,100576.95
